.
WxDataArchive / Data Records for 2009-06-16
2009-06-15 June 2009 2009-06-17

Data Records for Tuesday, 16 June 2009

Time	Temp	Chill	HIndex	Humid	Dewpt	 Wind 	HiWind	WindDir	Rain 	Barom 
-----	----	-----	------	-----	-----	------	------	-------	-----	----- 
00:00	66.8	66.8	66.8	60	52.5	1	2	112	0.00	30.015 
00:05	66.6	66.6	66.6	60	52.3	1	2	112	0.00	30.015 
00:10	66.4	66.4	66.4	60	52.1	1	3	112	0.00	30.015 
00:15	66.3	66.3	66.3	61	52.4	1	3	112	0.00	30.008 
00:20	66.1	66.1	66.1	61	52.3	1	2	112	0.00	30.008 
00:25	66.0	66.0	66.0	61	52.2	1	3	112	0.00	30.008 
00:30	65.8	65.8	65.8	61	52.0	1	4	68	0.00	30.001 
00:35	65.6	65.6	65.6	61	51.8	0	2	68	0.00	30.001 
00:40	65.5	65.5	65.5	62	52.1	0	2	68	0.00	30.001 
00:45	65.2	65.2	65.2	62	51.8	1	2	68	0.00	29.998 
00:50	65.0	65.0	65.0	62	51.7	1	3	68	0.00	29.998 
00:55	64.8	64.8	64.8	62	51.5	1	2	68	0.00	29.998 
01:00	64.7	64.7	64.7	62	51.4	0	2	68	0.00	29.996 
01:05	64.5	64.5	64.5	62	51.2	0	2	68	0.00	29.996 
01:10	64.3	64.3	64.3	62	51.0	0	2	68	0.00	29.996 
01:15	64.2	64.2	64.2	63	51.3	0	2	68	0.00	30.001 
01:20	64.0	64.0	64.0	63	51.1	0	1	68	0.00	30.001 
01:25	63.7	63.7	63.7	64	51.3	0	1	68	0.00	30.001 
01:30	63.5	63.5	63.5	64	51.1	0	1	68	0.00	30.012 
01:35	63.4	63.4	63.4	64	51.0	0	1	68	0.00	30.012 
01:40	63.2	63.2	63.2	64	50.8	0	1	68	0.00	30.012 
01:45	63.1	63.1	63.1	64	50.7	0	2	68	0.00	30.015 
01:50	63.1	63.1	63.1	64	50.7	0	2	68	0.00	30.015 
01:55	63.1	63.1	63.1	64	50.7	0	2	68	0.00	30.015 
02:00	62.9	62.9	62.9	65	50.9	0	1	68	0.00	30.021 
02:05	62.7	62.7	62.7	65	50.8	0	2	68	0.00	30.021 
02:10	62.7	62.7	62.7	65	50.8	0	1	68	0.00	30.021 
02:15	62.6	62.6	62.6	64	50.2	0	1	68	0.00	30.022 
02:20	62.4	62.4	62.4	64	50.1	0	1	68	0.00	30.022 
02:25	62.4	62.4	62.4	63	49.6	0	2	68	0.00	30.022 
02:30	62.4	62.4	62.4	63	49.6	1	2	68	0.00	30.020 
02:35	62.4	62.4	62.4	61	48.8	1	3	68	0.00	30.020 
02:40	62.6	62.6	62.6	60	48.5	1	4	90	0.00	30.020 
02:45	62.7	62.7	62.7	59	48.2	1	3	90	0.00	30.017 
02:50	62.7	62.7	62.7	59	48.2	1	2	90	0.00	30.017 
02:55	62.6	62.6	62.6	59	48.1	1	3	90	0.00	30.017 
03:00	62.6	62.6	62.6	58	47.6	2	4	112	0.00	30.004 
03:05	62.4	62.4	62.4	58	47.4	1	4	112	0.00	30.004 
03:10	62.4	62.4	62.4	58	47.4	1	3	90	0.00	30.004 
03:15	62.3	62.3	62.3	58	47.3	1	4	112	0.00	29.999 
03:20	62.3	62.3	62.3	58	47.3	1	3	112	0.00	29.999 
03:25	62.1	62.1	62.1	58	47.1	0	2	112	0.00	29.999 
03:30	62.0	62.0	62.0	58	47.0	1	2	112	0.00	30.011 
03:35	62.0	62.0	62.0	58	47.0	1	2	112	0.00	30.011 
03:40	61.8	61.8	61.8	59	47.3	1	3	112	0.00	30.011 
03:45	61.6	61.6	61.6	59	47.1	0	2	112	0.00	30.016 
03:50	61.5	61.5	61.5	60	47.5	0	2	112	0.00	30.016 
03:55	61.5	61.5	61.5	61	47.9	0	1	112	0.00	30.016 
04:00	61.3	61.3	61.3	61	47.7	0	2	112	0.00	30.024 
04:05	61.2	61.2	61.2	61	47.6	0	2	112	0.00	30.024 
04:10	61.0	61.0	61.0	61	47.5	0	2	112	0.00	30.024 
04:15	61.2	61.2	61.2	61	47.6	1	3	112	0.00	30.034 
04:20	61.2	61.2	61.2	61	47.6	0	2	112	0.00	30.034 
04:25	61.0	61.0	61.0	61	47.5	0	2	112	0.00	30.034 
04:30	60.9	60.9	60.9	62	47.8	1	2	112	0.00	30.028 
04:35	60.9	60.9	60.9	62	47.8	1	3	112	0.00	30.028 
04:40	60.7	60.7	60.7	62	47.6	1	4	112	0.00	30.028 
04:45	60.7	60.7	60.7	62	47.6	1	3	112	0.00	30.023 
04:50	60.7	60.7	60.7	62	47.6	1	3	112	0.00	30.023 
04:55	60.5	60.5	60.5	62	47.4	1	2	112	0.00	30.023 
05:00	60.5	60.5	60.5	62	47.4	0	2	112	0.00	30.018 
05:05	60.4	60.4	60.4	62	47.3	1	2	112	0.00	30.018 
05:10	60.4	60.4	60.4	62	47.3	1	3	112	0.00	30.018 
05:15	60.4	60.4	60.4	62	47.3	1	3	90	0.00	30.012 
05:20	60.5	60.5	60.5	61	47.0	1	2	68	0.00	30.012 
05:25	60.7	60.7	60.7	60	46.7	1	4	68	0.00	30.012 
05:30	60.9	60.9	60.9	60	46.9	1	2	68	0.00	30.016 
05:35	60.9	60.9	60.9	60	46.9	1	4	90	0.00	30.016 
05:40	60.9	60.9	60.9	60	46.9	1	3	90	0.00	30.016 
05:45	60.7	60.7	60.7	60	46.7	1	4	90	0.00	30.006 
05:50	60.9	60.9	60.9	59	46.5	2	4	68	0.00	30.006 
05:55	60.9	60.9	60.9	59	46.5	1	3	90	0.00	30.006 
06:00	61.0	61.0	61.0	59	46.6	1	3	90	0.00	30.005 
06:05	61.0	61.0	61.0	59	46.6	1	3	90	0.00	30.005 
06:10	60.9	60.9	60.9	59	46.5	1	2	90	0.00	30.005 
06:15	60.9	60.9	60.9	59	46.5	1	3	90	0.00	30.007 
06:20	60.7	60.7	60.7	60	46.7	1	4	112	0.00	30.007 
06:25	60.7	60.7	60.7	59	46.3	1	3	112	0.00	30.007 
06:30	60.9	60.9	60.9	60	46.9	1	3	68	0.00	30.006 
06:35	60.9	60.9	60.9	60	46.9	1	3	112	0.00	30.006 
06:40	60.7	60.7	60.7	61	47.2	1	4	112	0.00	30.006 
06:45	60.7	60.7	60.7	61	47.2	1	5	112	0.00	30.006 
06:50	60.7	60.7	60.7	62	47.6	1	5	90	0.00	30.006 
06:55	60.7	60.7	60.7	61	47.2	1	3	112	0.00	30.006 
07:00	60.9	60.9	60.9	62	47.8	1	3	90	0.00	30.015 
07:05	60.9	60.9	60.9	61	47.4	1	4	90	0.00	30.015 
07:10	61.0	61.0	61.0	61	47.5	1	2	90	0.00	30.015 
07:15	61.0	61.0	61.0	62	47.9	1	3	90	0.00	30.015 
07:20	61.2	61.2	61.2	62	48.1	1	3	90	0.00	30.015 
07:25	61.3	61.3	61.3	61	47.7	2	4	90	0.00	30.015 
07:30	61.6	61.6	61.6	61	48.0	1	4	90	0.00	30.010 
07:35	62.0	62.0	62.0	60	48.0	1	4	90	0.00	30.010 
07:40	62.3	62.3	62.3	59	47.8	1	3	90	0.00	30.010 
07:45	62.6	62.6	62.6	59	48.1	1	3	90	0.00	30.017 
07:50	62.9	62.9	62.9	59	48.3	1	3	90	0.00	30.017 
07:55	63.1	63.1	63.1	58	48.1	2	4	112	0.00	30.017 
08:00	63.2	63.2	63.2	57	47.7	2	5	112	0.00	30.019 
08:05	63.4	63.4	63.4	57	47.9	2	4	90	0.00	30.019 
08:10	63.7	63.7	63.7	56	47.7	2	3	112	0.00	30.019 
08:15	64.0	64.0	64.0	55	47.5	1	4	90	0.00	30.022 
08:20	64.3	64.3	64.3	55	47.8	1	2	90	0.00	30.022 
08:25	64.5	64.5	64.5	54	47.5	1	4	90	0.00	30.022 
08:30	64.7	64.7	64.7	54	47.7	2	5	90	0.00	30.019 
08:35	64.7	64.7	64.7	55	48.2	2	6	112	0.00	30.019 
08:40	64.7	64.7	64.7	54	47.7	2	6	112	0.00	30.019 
08:45	64.7	64.7	64.7	56	48.6	1	3	112	0.00	30.010 
08:50	64.7	64.7	64.7	55	48.2	1	4	90	0.00	30.010 
08:55	64.8	64.8	64.8	55	48.2	1	3	68	0.00	30.010 
09:00	65.0	65.0	65.0	54	47.9	1	3	68	0.00	30.019 
09:05	65.2	65.2	65.2	54	48.1	2	5	90	0.00	30.019 
09:10	65.3	65.3	65.3	55	48.7	1	2	90	0.00	30.019 
09:15	65.6	65.6	65.6	54	48.5	2	4	90	0.00	30.028 
09:20	66.3	66.3	66.3	54	49.1	1	4	90	0.00	30.028 
09:25	66.9	66.9	66.9	54	49.7	1	4	112	0.00	30.028 
09:30	67.1	67.1	67.1	51	48.4	2	6	90	0.00	30.028 
09:35	67.3	67.3	67.3	50	48.0	2	4	90	0.00	30.028 
09:40	67.3	67.3	67.3	50	48.0	2	7	90	0.00	30.028 
09:45	67.6	67.6	67.6	51	48.8	2	5	90	0.00	30.028 
09:50	68.3	68.3	68.3	50	48.9	2	5	90	0.00	30.028 
09:55	69.1	69.1	69.1	51	50.2	2	5	90	0.00	30.028 
10:00	69.6	69.6	69.6	48	49.0	3	7	90	0.00	30.019 
10:05	69.9	69.9	69.9	48	49.3	3	6	90	0.00	30.019 
10:10	69.9	69.9	69.9	46	48.2	3	6	90	0.00	30.019 
10:15	70.3	70.3	70.3	49	50.2	3	5	112	0.00	30.019 
10:20	70.9	70.9	70.9	46	49.1	3	9	90	0.00	30.019 
10:25	71.3	71.3	71.3	48	50.6	2	6	90	0.00	30.019 
10:30	71.3	71.3	71.3	46	49.4	2	5	112	0.00	30.018 
10:35	71.5	71.5	71.5	49	51.3	2	7	90	0.00	30.018 
10:40	71.6	71.6	71.6	46	49.7	3	9	90	0.00	30.018 
10:45	72.1	72.1	72.1	49	51.9	2	5	90	0.00	30.018 
10:50	72.1	72.1	72.1	47	50.7	3	5	112	0.00	30.018 
10:55	72.5	72.5	72.5	49	52.2	2	7	90	0.00	30.018 
11:00	72.8	72.8	72.8	49	52.5	3	5	112	0.00	30.011 
11:05	73.0	73.0	73.0	49	52.7	2	5	90	0.00	30.011 
11:10	72.8	72.8	72.8	47	51.4	3	7	90	0.00	30.011 
11:15	72.5	72.5	72.5	48	51.7	2	5	112	0.00	30.007 
11:20	72.5	72.5	72.5	49	52.2	2	5	90	0.00	30.007 
11:25	72.5	72.5	72.5	48	51.7	2	5	90	0.00	30.007 
11:30	72.7	72.7	72.7	50	53.0	2	6	90	0.00	30.004 
11:35	73.0	73.0	73.0	50	53.2	2	4	90	0.00	30.004 
11:40	73.3	73.3	73.3	50	53.5	2	5	90	0.00	30.004 
11:45	73.5	73.5	73.5	48	52.6	2	4	112	0.00	30.002 
11:50	73.7	73.7	73.7	48	52.8	3	6	90	0.00	30.002 
11:55	74.0	74.0	74.0	48	53.0	3	9	90	0.00	30.002 
12:00	74.2	74.2	74.2	49	53.8	2	6	90	0.00	29.993 
12:05	74.0	74.0	74.0	49	53.6	3	6	112	0.00	29.993 
12:10	74.4	74.4	74.4	49	54.0	3	5	90	0.00	29.993 
12:15	75.1	75.1	77.7	47	53.5	3	4	90	0.00	29.987 
12:20	75.4	75.4	77.8	47	53.7	3	8	90	0.00	29.987 
12:25	75.4	75.4	77.8	46	53.2	3	11	90	0.00	29.987 
12:30	75.4	75.4	77.8	49	54.9	2	7	90	0.00	29.986 
12:35	75.6	75.6	77.9	48	54.5	2	6	112	0.00	29.986 
12:40	76.0	76.0	78.0	47	54.3	2	7	90	0.00	29.986 
12:45	76.3	76.3	78.2	47	54.6	3	7	90	0.00	29.984 
12:50	76.5	76.5	78.2	46	54.2	3	7	90	0.00	29.984 
12:55	77.0	77.0	78.5	48	55.8	2	6	112	0.00	29.984 
13:00	77.7	77.7	78.9	47	55.8	3	8	90	0.00	29.970 
13:05	78.3	78.3	79.3	47	56.4	2	6	90	0.00	29.970 
13:10	78.6	78.6	79.4	45	55.5	2	7	112	0.00	29.970 
13:15	78.1	78.1	78.9	43	53.8	3	6	112	0.00	29.972 
13:20	77.6	77.6	78.7	43	53.3	2	6	112	0.00	29.972 
13:25	77.0	77.0	78.4	43	52.8	2	6	90	0.00	29.972 
13:30	76.8	76.8	78.3	45	53.8	2	5	90	0.00	29.965 
13:35	76.8	76.8	78.3	45	53.8	1	5	135	0.00	29.965 
13:40	77.2	77.2	78.6	46	54.8	1	4	90	0.00	29.965 
13:45	77.4	77.4	78.6	43	53.1	2	5	112	0.00	29.958 
13:50	77.4	77.4	78.6	43	53.1	2	6	112	0.00	29.958 
13:55	77.2	77.2	78.5	43	52.9	3	9	112	0.00	29.958 
14:00	77.0	77.0	78.4	44	53.4	2	5	112	0.00	29.951 
14:05	77.0	77.0	78.4	43	52.8	2	7	112	0.00	29.951 
14:10	77.0	77.0	78.4	45	54.0	2	5	90	0.00	29.951 
14:15	77.2	77.2	78.5	45	54.2	2	4	90	0.00	29.941 
14:20	77.4	77.4	78.6	45	54.4	2	6	90	0.00	29.941 
14:25	77.6	77.6	78.7	44	53.9	2	5	112	0.00	29.941 
14:30	77.7	77.7	78.8	44	54.0	3	5	112	0.00	29.940 
14:35	77.9	77.9	78.8	42	52.9	2	6	90	0.00	29.940 
14:40	77.7	77.7	78.8	44	54.0	1	5	90	0.00	29.940 
14:45	77.6	77.6	78.7	44	53.9	1	4	90	0.00	29.941 
14:50	77.4	77.4	78.6	45	54.4	1	3	22	0.00	29.941 
14:55	77.2	77.2	78.5	43	52.9	3	6	112	0.00	29.941 
15:00	77.2	77.2	78.5	43	52.9	2	6	112	0.00	29.943 
15:05	77.0	77.0	78.3	42	52.1	2	7	112	0.00	29.943 
15:10	77.0	77.0	78.4	43	52.8	2	5	112	0.00	29.943 
15:15	76.8	76.8	78.3	44	53.2	1	4	112	0.00	29.952 
15:20	76.7	76.7	78.3	45	53.7	1	3	135	0.00	29.952 
15:25	76.5	76.5	78.3	48	55.3	0	2	135	0.00	29.952 
15:30	76.1	76.1	78.1	50	56.1	0	3	135	0.00	29.955 
15:35	75.8	75.8	78.0	51	56.4	0	2	135	0.00	29.955 
15:40	75.4	75.4	77.8	50	55.4	0	3	112	0.00	29.955 
15:45	75.3	75.3	77.7	53	57.0	1	3	112	0.00	29.958 
15:50	75.1	75.1	77.6	54	57.3	0	2	112	0.00	29.958 
15:55	75.1	75.1	77.6	53	56.8	0	2	112	0.00	29.958 
16:00	74.7	74.7	74.7	54	56.9	1	3	112	0.00	29.952 
16:05	74.6	74.6	74.6	57	58.3	1	3	90	0.00	29.952 
16:10	73.9	73.9	73.9	57	57.7	2	4	90	0.00	29.952 
16:15	73.2	73.2	73.2	59	58.0	3	10	90	0.00	29.946 
16:20	72.7	72.7	72.7	59	57.5	3	8	90	0.00	29.946 
16:25	72.1	72.1	72.1	62	58.3	3	9	112	0.00	29.946 
16:30	71.5	71.5	71.5	64	58.7	3	10	90	0.00	29.942 
16:35	71.1	71.1	71.1	65	58.7	2	6	90	0.00	29.942 
16:40	70.9	70.9	70.9	65	58.5	2	5	90	0.00	29.942 
16:45	70.9	70.9	70.9	66	59.0	2	4	112	0.00	29.941 
16:50	70.9	70.9	70.9	65	58.5	2	4	112	0.00	29.941 
16:55	71.1	71.1	71.1	65	58.7	2	6	112	0.00	29.941 
17:00	71.1	71.1	71.1	66	59.2	2	6	90	0.00	29.937 
17:05	70.9	70.9	70.9	67	59.4	2	5	90	0.00	29.937 
17:10	70.9	70.9	70.9	68	59.8	2	5	90	0.00	29.937 
17:15	70.8	70.8	70.8	69	60.1	2	5	90	0.00	29.931 
17:20	70.8	70.8	70.8	68	59.7	2	6	112	0.00	29.931 
17:25	70.6	70.6	70.6	69	59.9	1	4	68	0.00	29.931 
17:30	70.6	70.6	70.6	68	59.5	2	4	90	0.01	29.929 
17:35	70.4	70.4	70.4	69	59.7	1	3	90	0.00	29.929 
17:40	70.4	70.4	70.4	68	59.3	2	5	90	0.00	29.929 
17:45	70.4	70.4	70.4	69	59.7	1	3	90	0.00	29.928 
17:50	70.4	70.4	70.4	70	60.1	1	2	90	0.00	29.928 
17:55	70.4	70.4	70.4	70	60.1	1	3	90	0.00	29.928 
18:00	70.4	70.4	70.4	71	60.5	1	3	90	0.00	29.925 
18:05	70.4	70.4	70.4	71	60.5	1	2	90	0.00	29.925 
18:10	70.3	70.3	70.3	73	61.2	1	2	90	0.00	29.925 
18:15	70.3	70.3	70.3	74	61.6	1	2	90	0.00	29.924 
18:20	70.1	70.1	70.1	74	61.4	1	3	90	0.00	29.924 
18:25	69.9	69.9	69.9	73	60.8	0	2	90	0.00	29.924 
18:30	69.8	69.8	69.8	75	61.5	0	1	90	0.00	29.925 
18:35	69.8	69.8	69.8	77	62.3	0	0	---	0.00	29.925 
18:40	69.6	69.6	69.6	75	61.3	0	3	90	0.00	29.925 
18:45	69.6	69.6	69.6	76	61.7	0	2	90	0.01	29.924 
18:50	69.4	69.4	69.4	76	61.5	0	1	90	0.00	29.924 
18:55	69.4	69.4	69.4	78	62.2	0	0	---	0.00	29.924 
19:00	69.4	69.4	69.4	80	63.0	0	0	---	0.00	29.926 
19:05	69.3	69.3	69.3	81	63.2	0	0	---	0.00	29.926 
19:10	68.9	68.9	68.9	82	63.2	0	0	---	0.00	29.926 
19:15	68.8	68.8	68.8	83	63.4	0	0	---	0.00	29.917 
19:20	68.4	68.4	68.4	82	62.7	0	2	90	0.00	29.917 
19:25	68.4	68.4	68.4	84	63.4	0	0	---	0.01	29.917 
19:30	68.3	68.3	68.3	85	63.6	0	0	---	0.00	29.924 
19:35	68.1	68.1	68.1	86	63.7	0	0	---	0.00	29.924 
19:40	67.9	67.9	67.9	85	63.2	0	0	---	0.00	29.924 
19:45	67.8	67.8	67.8	86	63.5	0	1	90	0.00	29.927 
19:50	67.8	67.8	67.8	87	63.8	0	1	90	0.00	29.927 
19:55	67.6	67.6	67.6	86	63.3	0	2	90	0.00	29.927 
20:00	67.6	67.6	67.6	87	63.6	0	1	90	0.01	29.924 
20:05	67.4	67.4	67.4	87	63.4	0	1	90	0.00	29.924 
20:10	67.4	67.4	67.4	87	63.4	0	2	90	0.00	29.924 
20:15	67.4	67.4	67.4	87	63.4	0	3	158	0.00	29.926 
20:20	67.3	67.3	67.3	87	63.3	0	2	158	0.00	29.926 
20:25	67.3	67.3	67.3	86	63.0	0	1	158	0.00	29.926 
20:30	67.3	67.3	67.3	87	63.3	0	1	158	0.00	29.924 
20:35	67.3	67.3	67.3	87	63.3	0	1	158	0.00	29.924 
20:40	67.1	67.1	67.1	87	63.1	0	1	158	0.00	29.924 
20:45	67.1	67.1	67.1	87	63.1	0	1	158	0.00	29.924 
20:50	67.1	67.1	67.1	88	63.4	0	1	158	0.00	29.924 
20:55	67.1	67.1	67.1	88	63.4	1	3	158	0.00	29.924 
21:00	66.9	66.9	66.9	87	62.9	0	2	158	0.00	29.914 
21:05	66.9	66.9	66.9	87	62.9	0	1	158	0.00	29.914 
21:10	66.8	66.8	66.8	85	62.1	1	3	112	0.00	29.914 
21:15	66.8	66.8	66.8	84	61.8	1	4	112	0.00	29.911 
21:20	66.6	66.6	66.6	82	60.9	1	3	112	0.00	29.911 
21:25	66.6	66.6	66.6	81	60.6	1	5	112	0.00	29.911 
21:30	66.6	66.6	66.6	80	60.2	2	7	112	0.00	29.910 
21:35	66.6	66.6	66.6	80	60.2	2	6	112	0.00	29.910 
21:40	66.4	66.4	66.4	80	60.0	1	4	90	0.00	29.910 
21:45	66.3	66.3	66.3	80	59.9	1	3	90	0.00	29.912 
21:50	66.1	66.1	66.1	81	60.1	1	4	90	0.00	29.912 
21:55	66.0	66.0	66.0	81	60.0	1	4	112	0.00	29.912 
22:00	65.8	65.8	65.8	80	59.5	2	6	112	0.00	29.909 
22:05	65.6	65.6	65.6	81	59.6	2	6	90	0.00	29.909 
22:10	65.5	65.5	65.5	81	59.5	3	6	90	0.00	29.909 
22:15	65.3	65.3	65.3	81	59.3	3	6	90	0.00	29.907 
22:20	65.2	65.2	65.2	81	59.2	3	5	112	0.00	29.907 
22:25	65.2	65.2	65.2	81	59.2	3	6	90	0.00	29.907 
22:30	65.0	65.0	65.0	82	59.4	2	4	112	0.00	29.909 
22:35	64.8	64.8	64.8	83	59.5	2	5	90	0.00	29.909 
22:40	64.7	64.7	64.7	84	59.7	2	5	90	0.01	29.909 
22:45	64.5	64.5	64.5	84	59.6	3	6	90	0.00	29.895 
22:50	64.3	64.3	64.3	85	59.7	2	4	68	0.00	29.895 
22:55	64.2	64.2	64.2	84	59.3	3	8	90	0.00	29.895 
23:00	64.2	64.2	64.2	84	59.3	2	6	90	0.00	29.895 
23:05	64.2	64.2	64.2	83	58.9	2	5	112	0.00	29.895 
23:10	64.3	64.3	64.3	83	59.0	3	6	90	0.00	29.895 
23:15	64.3	64.3	64.3	82	58.7	3	7	90	0.00	29.891 
23:20	64.3	64.3	64.3	82	58.7	3	7	90	0.00	29.891 
23:25	64.3	64.3	64.3	82	58.7	2	5	112	0.00	29.891 
23:30	64.5	64.5	64.5	82	58.9	2	6	90	0.00	29.880 
23:35	64.5	64.5	64.5	81	58.5	3	9	90	0.00	29.880 
23:40	64.5	64.5	64.5	82	58.9	3	5	90	0.00	29.880 
23:45	64.5	64.5	64.5	82	58.9	2	6	90	0.00	29.878 
23:50	64.3	64.3	64.3	82	58.7	2	4	112	0.00	29.878 
23:55	64.3	64.3	64.3	82	58.7	2	5	90	0.00	29.878 

CoCoRaHS
IN-AL-39
A2 Web Hosting
Creative Commons License
GoDaddy
search engine by freefind advanced

loaded 2018-11-17 14:29:06 • last modified 2010-11-18 10:43:29
Privacy PolicyDisclaimer
• wx.awcolley.com is powered by PmWiki v.2002016 •
• all content (unless otherwise noted) © 2018 A W Colley